Time;durP1;ratioP1;P1;durP2;ratioP2;P2;SDS_P1;SDS_P2;PMS_P1;PMS_P2;Temp;Humidity;BMP_temperature;BMP_pressure;BME280_temperature;BME280_humidity;BME280_pressure;Samples;Min_cycle;Max_cycle;Signal;HPM_P1;HPM_P2
2023/03/22 00:03:17;;;;;;;14.20;7.97;;;;;10.50;96130.00;;;;8399789;28;20299;-74
2023/03/22 00:07:23;;;;;;;12.15;6.70;;;;;10.60;96129.00;;;;8400032;28;20223;-74
2023/03/22 00:11:28;;;;;;;12.73;7.63;;;;;10.70;96132.00;;;;8398471;28;20188;-74
2023/03/22 00:15:33;;;;;;;10.35;6.70;;;;;10.70;96126.00;;;;8399199;28;20638;-73
2023/03/22 00:19:41;;;;;;;10.75;6.88;;;;;10.70;96124.00;;;;8399771;28;20250;-75
2023/03/22 00:23:44;;;;;;;11.43;7.18;;;;;10.70;96129.00;;;;8399743;28;20183;-75
2023/03/22 00:27:49;;;;;;;8.07;6.10;;;;;10.80;96119.00;;;;8398111;28;20646;-75
2023/03/22 00:31:53;;;;;;;14.98;7.20;;;;;10.80;96132.00;;;;8399022;28;20226;-74
2023/03/22 00:35:59;;;;;;;10.35;6.35;;;;;10.80;96125.00;;;;8397012;28;20233;-74
2023/03/22 00:40:03;;;;;;;9.18;6.90;;;;;10.80;96129.00;;;;8398586;28;20300;-74
2023/03/22 00:44:07;;;;;;;10.98;6.95;;;;;10.90;96129.00;;;;8399226;28;20198;-74
2023/03/22 00:48:13;;;;;;;11.85;6.95;;;;;10.90;96114.00;;;;8398750;28;20215;-72
2023/03/22 00:52:16;;;;;;;10.07;6.15;;;;;10.90;96125.00;;;;8397706;28;20194;-73
2023/03/22 00:56:27;;;;;;;9.60;6.40;;;;;10.90;96118.00;;;;8397648;28;20602;-73
2023/03/22 01:00:33;;;;;;;8.90;6.30;;;;;10.90;96121.00;;;;8397806;28;20190;-73
2023/03/22 01:04:44;;;;;;;14.23;6.50;;;;;10.80;96101.00;;;;8398498;28;20689;-73
2023/03/22 01:08:49;;;;;;;10.40;6.70;;;;;10.80;96100.00;;;;8397332;28;20699;-74
2023/03/22 01:12:52;;;;;;;11.85;6.93;;;;;10.70;96101.00;;;;8396995;28;20201;-74
2023/03/22 01:16:57;;;;;;;9.40;6.55;;;;;10.60;96104.00;;;;8392263;28;20243;-74
2023/03/22 01:21:04;;;;;;;8.25;6.10;;;;;10.60;96091.00;;;;8397265;28;20287;-74
2023/03/22 01:25:17;;;;;;;12.05;6.38;;;;;10.50;96086.00;;;;8396522;28;20192;-75
2023/03/22 01:29:23;;;;;;;11.93;6.72;;;;;10.40;96082.00;;;;8395254;28;20243;-74
2023/03/22 01:33:31;;;;;;;9.93;6.20;;;;;10.30;96085.00;;;;8396359;28;20218;-74
2023/03/22 01:37:34;;;;;;;12.93;7.03;;;;;10.10;96083.00;;;;8397029;28;20230;-73
2023/03/22 01:41:39;;;;;;;11.07;6.67;;;;;9.80;96085.00;;;;8394962;28;20201;-74
2023/03/22 01:45:45;;;;;;;14.45;6.07;;;;;9.60;96085.00;;;;8395454;28;20710;-74
2023/03/22 01:49:52;;;;;;;10.07;6.65;;;;;9.50;96078.00;;;;8395861;28;20223;-74
2023/03/22 01:54:09;;;;;;;11.17;7.53;;;;;9.30;96078.00;;;;8395525;28;20283;-75
2023/03/22 01:58:14;;;;;;;14.53;7.40;;;;;9.30;96074.00;;;;8396542;28;20242;-74
2023/03/22 02:02:21;;;;;;;15.17;6.93;;;;;9.20;96072.00;;;;8396963;28;20625;-74
2023/03/22 02:06:28;;;;;;;12.45;7.22;;;;;9.20;96057.00;;;;8396080;28;20712;-75
2023/03/22 02:10:31;;;;;;;13.57;7.53;;;;;9.20;96058.00;;;;8396949;28;20575;-75
2023/03/22 02:15:04;;;;;;;14.57;8.30;;;;;9.10;96057.00;;;;8395342;28;20199;-75
2023/03/22 02:19:41;;;;;;;17.73;7.23;;;;;9.10;96058.00;;;;8395972;28;20222;-75
2023/03/22 02:24:10;;;;;;;15.73;8.37;;;;;9.10;96057.00;;;;8395689;28;20196;-75
2023/03/22 02:28:28;;;;;;;11.67;6.83;;;;;9.20;96062.00;;;;8395898;28;20212;-75
2023/03/22 02:33:04;;;;;;;14.60;7.28;;;;;9.20;96048.00;;;;8395303;28;20196;-75
2023/03/22 02:37:34;;;;;;;12.07;6.80;;;;;9.30;96051.00;;;;8395743;28;20200;-74
2023/03/22 02:41:47;;;;;;;10.23;7.20;;;;;9.40;96042.00;;;;8394378;28;20257;-75
2023/03/22 02:45:55;;;;;;;12.02;7.82;;;;;9.40;96047.00;;;;8396699;28;20683;-74
2023/03/22 02:50:03;;;;;;;12.23;7.37;;;;;9.30;96041.00;;;;8394196;28;20211;-74
2023/03/22 02:54:14;;;;;;;10.48;6.80;;;;;9.30;96041.00;;;;8396742;28;20192;-74
2023/03/22 02:58:22;;;;;;;12.57;7.37;;;;;9.30;96036.00;;;;8401393;28;20584;-74
2023/03/22 03:02:29;;;;;;;12.53;6.97;;;;;9.30;96041.00;;;;8413948;22;20295;-76
2023/03/22 03:06:37;;;;;;;13.43;7.07;;;;;9.40;96043.00;;;;8373249;28;20254;-76
2023/03/22 03:10:41;;;;;;;10.37;6.37;;;;;9.30;96034.00;;;;8385841;28;20192;-76
2023/03/22 03:14:46;;;;;;;17.53;7.80;;;;;9.20;96040.00;;;;8384491;28;20251;-76
2023/03/22 03:19:02;;;;;;;14.23;7.17;;;;;9.00;96034.00;;;;8390331;28;20220;-76
2023/03/22 03:23:30;;;;;;;14.10;7.30;;;;;8.80;96035.00;;;;8382999;28;20205;-76
2023/03/22 03:27:38;;;;;;;13.63;7.63;;;;;8.60;96033.00;;;;8380353;28;20212;-75
2023/03/22 03:31:50;;;;;;;11.13;7.37;;;;;8.30;96038.00;;;;8383384;28;20193;-76
2023/03/22 03:35:58;;;;;;;17.47;7.37;;;;;8.00;96035.00;;;;8386182;28;20222;-75
2023/03/22 03:40:09;;;;;;;14.43;7.73;;;;;7.80;96026.00;;;;8378864;28;20193;-76
2023/03/22 03:44:13;;;;;;;17.00;7.37;;;;;7.70;96037.00;;;;8383372;28;20231;-76
2023/03/22 03:48:21;;;;;;;16.73;8.07;;;;;7.50;96033.00;;;;8392948;28;20288;-75
2023/03/22 03:52:25;;;;;;;17.23;7.83;;;;;7.30;96043.00;;;;8385125;28;20917;-75
2023/03/22 03:56:28;;;;;;;12.67;7.73;;;;;7.20;96041.00;;;;8383691;28;20196;-75
2023/03/22 04:00:31;;;;;;;15.63;7.83;;;;;7.10;96031.00;;;;8382957;28;20902;-75
2023/03/22 04:04:37;;;;;;;12.87;7.17;;;;;6.90;96025.00;;;;8377687;28;20724;-75
2023/03/22 04:08:52;;;;;;;17.47;8.70;;;;;6.70;96028.00;;;;8383184;28;20219;-75
2023/03/22 04:12:55;;;;;;;14.70;8.10;;;;;6.50;96036.00;;;;8373515;28;20967;-75
2023/03/22 04:17:04;;;;;;;18.80;9.07;;;;;6.30;96045.00;;;;8382348;28;20200;-75
2023/03/22 04:21:15;;;;;;;13.63;8.03;;;;;6.20;96045.00;;;;8379934;28;20208;-75
2023/03/22 04:25:21;;;;;;;19.40;8.60;;;;;6.10;96037.00;;;;8375013;28;20200;-75
2023/03/22 04:29:31;;;;;;;14.73;7.67;;;;;5.90;96036.00;;;;8379141;28;20224;-76
2023/03/22 04:33:38;;;;;;;16.23;7.53;;;;;5.80;96032.00;;;;8376399;28;20200;-75
2023/03/22 04:37:44;;;;;;;16.97;8.47;;;;;5.70;96026.00;;;;8381852;28;20218;-77
2023/03/22 04:41:47;;;;;;;15.97;8.57;;;;;5.70;96024.00;;;;8380170;28;20204;-76
2023/03/22 04:45:53;;;;;;;14.57;8.57;;;;;5.60;96028.00;;;;8371370;28;20225;-76
2023/03/22 04:49:57;;;;;;;18.97;9.67;;;;;5.60;96029.00;;;;8371955;28;20235;-76
2023/03/22 04:54:01;;;;;;;16.73;8.87;;;;;5.50;96023.00;;;;8379265;28;20199;-76
2023/03/22 04:58:04;;;;;;;13.17;8.63;;;;;5.50;96032.00;;;;8375177;28;20644;-75
2023/03/22 05:02:08;;;;;;;17.33;9.30;;;;;5.50;96024.00;;;;8375023;28;20964;-75
2023/03/22 05:06:11;;;;;;;18.60;9.50;;;;;5.50;96018.00;;;;8374982;28;20249;-78
2023/03/22 05:10:19;;;;;;;21.43;9.90;;;;;5.50;96019.00;;;;8370850;28;20228;-75
2023/03/22 05:14:23;;;;;;;16.83;8.97;;;;;5.40;96020.00;;;;8367727;28;20592;-75
2023/03/22 05:18:28;;;;;;;20.77;10.13;;;;;5.40;96017.00;;;;8377311;28;20264;-75
2023/03/22 05:22:33;;;;;;;25.30;9.70;;;;;5.40;96014.00;;;;8377371;28;20211;-75
2023/03/22 05:26:41;;;;;;;18.97;9.33;;;;;5.40;96023.00;;;;8368632;28;20231;-77
2023/03/22 05:30:48;;;;;;;18.30;9.03;;;;;5.50;96024.00;;;;8362182;28;20322;-76
2023/03/22 05:34:51;;;;;;;18.80;9.50;;;;;5.50;96022.00;;;;8359365;28;20258;-77
2023/03/22 05:38:54;;;;;;;21.93;10.30;;;;;5.60;96027.00;;;;8365795;28;20216;-76
2023/03/22 05:42:59;;;;;;;22.77;10.37;;;;;5.70;96030.00;;;;8358445;28;20203;-77
2023/03/22 05:47:03;;;;;;;23.27;10.00;;;;;5.90;96036.00;;;;8365746;28;20203;-75
2023/03/22 05:51:07;;;;;;;22.50;10.37;;;;;6.10;96030.00;;;;8364823;28;20267;-76
2023/03/22 05:55:12;;;;;;;21.43;10.57;;;;;6.30;96033.00;;;;8367421;28;20333;-80
2023/03/22 05:59:17;;;;;;;17.57;9.57;;;;;6.40;96029.00;;;;8357095;28;20238;-79
2023/03/22 06:03:20;;;;;;;20.50;9.53;;;;;6.60;96035.00;;;;8358228;28;20293;-81
2023/03/22 06:07:26;;;;;;;18.90;9.13;;;;;6.70;96033.00;;;;8356221;28;20277;-78
2023/03/22 06:11:32;;;;;;;17.53;8.90;;;;;6.90;96037.00;;;;8366229;28;20269;-77
2023/03/22 06:15:37;;;;;;;17.00;8.30;;;;;7.10;96034.00;;;;8366135;28;20200;-77
2023/03/22 06:19:42;;;;;;;19.13;9.57;;;;;7.20;96040.00;;;;8366178;28;20217;-80
2023/03/22 06:23:45;;;;;;;19.10;8.63;;;;;7.20;96047.00;;;;8367359;28;20218;-81
2023/03/22 06:27:49;;;;;;;13.17;8.33;;;;;7.40;96045.00;;;;8371897;28;20226;-79
2023/03/22 06:32:15;;;;;;;18.87;9.57;;;;;7.50;96038.00;;;;8371690;28;20247;-78
2023/03/22 06:36:23;;;;;;;19.03;8.43;;;;;7.80;96040.00;;;;8372558;28;20219;-81
2023/03/22 06:40:26;;;;;;;14.50;7.93;;;;;8.00;96046.00;;;;8374982;28;20258;-76
2023/03/22 06:44:29;;;;;;;21.17;10.53;;;;;8.20;96048.00;;;;8380175;28;20204;-77
2023/03/22 06:48:37;;;;;;;23.77;10.83;;;;;8.30;96039.00;;;;8373364;28;20223;-77
2023/03/22 06:52:40;;;;;;;15.87;9.83;;;;;8.50;96043.00;;;;8372657;28;20261;-79
2023/03/22 06:56:44;;;;;;;23.07;9.77;;;;;8.60;96051.00;;;;8375737;28;20688;-77
2023/03/22 07:00:47;;;;;;;15.77;9.13;;;;;8.70;96054.00;;;;8368532;28;20659;-78
2023/03/22 07:04:56;;;;;;;14.97;9.10;;;;;8.80;96052.00;;;;8367410;28;20240;-78
2023/03/22 07:09:08;;;;;;;23.03;10.80;;;;;8.90;96053.00;;;;8357697;28;20224;-78
2023/03/22 07:13:14;;;;;;;19.37;9.63;;;;;9.00;96054.00;;;;8371653;28;20242;-78
2023/03/22 07:17:23;;;;;;;19.20;9.13;;;;;9.20;96047.00;;;;8371031;28;20243;-78
2023/03/22 07:21:28;;;;;;;17.90;9.80;;;;;9.20;96046.00;;;;8369659;28;20197;-79
2023/03/22 07:25:31;;;;;;;20.90;9.53;;;;;9.40;96049.00;;;;8369071;28;20205;-79
2023/03/22 07:29:35;;;;;;;20.20;11.53;;;;;9.60;96049.00;;;;8367815;28;20584;-80
2023/03/22 07:33:47;;;;;;;16.20;10.50;;;;;9.90;96053.00;;;;8371842;28;20231;-79
2023/03/22 07:37:51;;;;;;;17.43;9.93;;;;;10.00;96054.00;;;;8381880;28;20617;-79
2023/03/22 07:41:56;;;;;;;17.33;10.80;;;;;10.20;96052.00;;;;8379929;28;20204;-80
2023/03/22 07:46:01;;;;;;;17.77;10.52;;;;;10.50;96063.00;;;;8370127;28;20974;-80
2023/03/22 07:50:05;;;;;;;22.10;12.68;;;;;10.80;96058.00;;;;8377705;28;20220;-80
2023/03/22 07:54:11;;;;;;;23.60;14.35;;;;;11.10;96059.00;;;;8382906;28;20284;-80
2023/03/22 07:58:27;;;;;;;20.70;12.45;;;;;11.50;96054.00;;;;8379498;28;20328;-80
2023/03/22 08:02:31;;;;;;;16.92;12.10;;;;;11.80;96055.00;;;;8370045;28;20534;-79
2023/03/22 08:06:35;;;;;;;19.13;11.07;;;;;12.10;96048.00;;;;8368780;28;20197;-78
2023/03/22 08:10:40;;;;;;;14.88;10.50;;;;;12.30;96052.00;;;;8369013;28;20229;-80
2023/03/22 08:14:45;;;;;;;14.05;9.80;;;;;12.60;96058.00;;;;8366732;28;20197;-80
2023/03/22 08:18:50;;;;;;;14.98;9.80;;;;;13.00;96058.00;;;;8373549;28;20192;-80
2023/03/22 08:22:54;;;;;;;15.40;9.30;;;;;13.20;96059.00;;;;8371588;28;20198;-80
2023/03/22 08:26:59;;;;;;;13.98;9.25;;;;;13.50;96061.00;;;;8357174;28;20248;-78
2023/03/22 08:31:10;;;;;;;14.23;9.18;;;;;13.80;96057.00;;;;8371852;28;20559;-79
2023/03/22 08:35:17;;;;;;;13.20;8.50;;;;;14.20;96065.00;;;;8369877;28;20203;-79
2023/03/22 08:39:20;;;;;;;17.50;8.60;;;;;14.60;96068.00;;;;8365739;28;20211;-77
2023/03/22 08:43:31;;;;;;;11.35;7.93;;;;;15.00;96056.00;;;;8374704;28;20199;-77
2023/03/22 08:47:34;;;;;;;10.40;7.47;;;;;15.50;96064.00;;;;8369763;28;20282;-77
2023/03/22 08:51:37;;;;;;;9.60;6.72;;;;;15.90;96060.00;;;;8376713;28;20257;-78
2023/03/22 08:55:43;;;;;;;7.68;5.90;;;;;16.30;96057.00;;;;8379000;28;20720;-79
2023/03/22 08:59:48;;;;;;;7.47;5.68;;;;;16.70;96058.00;;;;8384789;28;20246;-78
2023/03/22 09:03:52;;;;;;;7.68;5.50;;;;;17.10;96052.00;;;;8372166;28;20664;-77
2023/03/22 09:08:00;;;;;;;7.18;5.15;;;;;17.50;96051.00;;;;8359728;28;20208;-77
2023/03/22 09:12:09;;;;;;;5.82;4.72;;;;;18.10;96047.00;;;;8370883;28;20768;-77
2023/03/22 09:16:16;;;;;;;6.88;3.40;;;;;18.50;96041.00;;;;8369884;28;20203;-77
2023/03/22 09:20:24;;;;;;;6.90;4.22;;;;;18.90;96038.00;;;;8369689;28;20197;-77
2023/03/22 09:24:27;;;;;;;5.60;3.85;;;;;19.50;96033.00;;;;8369131;28;20208;-77
2023/03/22 09:28:33;;;;;;;4.30;3.63;;;;;19.80;96039.00;;;;8374608;28;20326;-77
2023/03/22 09:32:39;;;;;;;6.55;3.17;;;;;20.20;96039.00;;;;8376623;28;20805;-78
2023/03/22 09:36:51;;;;;;;4.97;3.30;;;;;20.40;96031.00;;;;8380851;28;20606;-77
2023/03/22 09:40:59;;;;;;;7.10;3.35;;;;;20.30;96024.00;;;;8372630;28;20283;-77
2023/03/22 09:45:05;;;;;;;3.00;2.80;;;;;20.60;96020.00;;;;8374838;28;20642;-78
2023/03/22 09:49:16;;;;;;;3.47;2.97;;;;;20.70;96020.00;;;;8377777;28;20207;-78
2023/03/22 09:53:21;;;;;;;3.95;3.10;;;;;20.50;96019.00;;;;8364835;28;20311;-77
2023/03/22 09:57:36;;;;;;;4.47;3.13;;;;;20.30;96023.00;;;;8369609;28;20200;-76
2023/03/22 10:01:48;;;;;;;3.03;2.67;;;;;20.20;96024.00;;;;8372863;28;20224;-77
2023/03/22 10:05:59;;;;;;;4.03;3.08;;;;;20.20;96016.00;;;;8370300;28;20196;-76
2023/03/22 10:10:09;;;;;;;3.08;2.88;;;;;20.40;96010.00;;;;8365837;28;20243;-78
2023/03/22 10:14:27;;;;;;;3.20;2.90;;;;;20.50;96002.00;;;;8374292;28;20196;-76
2023/03/22 10:18:37;;;;;;;4.43;3.42;;;;;20.70;96001.00;;;;8372905;28;20227;-79
2023/03/22 10:22:52;;;;;;;5.30;3.88;;;;;20.70;96004.00;;;;8367385;28;20195;-76
2023/03/22 10:26:56;;;;;;;5.68;4.13;;;;;20.60;96009.00;;;;8364074;28;20204;-76
2023/03/22 10:30:59;;;;;;;5.93;4.03;;;;;20.50;96009.00;;;;8364094;28;20844;-77
2023/03/22 10:35:02;;;;;;;9.90;3.95;;;;;20.50;96006.00;;;;8378986;28;20253;-78
2023/03/22 10:39:15;;;;;;;6.07;4.40;;;;;20.40;96009.00;;;;8378529;28;20200;-78
2023/03/22 10:43:23;;;;;;;4.40;3.95;;;;;20.60;96006.00;;;;8364330;28;21437;-76
2023/03/22 10:47:32;;;;;;;6.97;4.28;;;;;20.60;96009.00;;;;8375320;28;21159;-76
2023/03/22 10:51:43;;;;;;;5.97;4.35;;;;;20.60;95999.00;;;;8361035;28;20637;-74
2023/03/22 10:55:48;;;;;;;7.28;4.15;;;;;20.60;96003.00;;;;8365244;28;20990;-79
2023/03/22 10:59:55;;;;;;;4.97;3.42;;;;;20.60;95998.00;;;;8373012;28;20289;-81
2023/03/22 11:04:06;;;;;;;4.50;3.92;;;;;20.50;95994.00;;;;8367544;28;20232;-80
2023/03/22 11:08:14;;;;;;;5.25;4.15;;;;;20.70;95996.00;;;;8370377;28;20331;-81
2023/03/22 11:12:19;;;;;;;12.50;3.60;;;;;20.80;95981.00;;;;8360457;28;20269;-82
2023/03/22 11:16:25;;;;;;;8.48;3.83;;;;;20.90;95974.00;;;;8364028;28;20200;-81
2023/03/22 11:20:33;;;;;;;5.53;4.35;;;;;20.70;95974.00;;;;8382964;28;20496;-83
2023/03/22 11:24:41;;;;;;;4.55;3.47;;;;;20.60;95972.00;;;;8375787;28;20604;-82
2023/03/22 11:28:51;;;;;;;4.90;4.10;;;;;20.60;95957.00;;;;8372603;28;20201;-81
2023/03/22 11:33:02;;;;;;;3.40;3.10;;;;;20.60;95959.00;;;;8379558;28;20219;-82
2023/03/22 11:37:08;;;;;;;3.35;3.05;;;;;20.60;95942.00;;;;8373823;28;20207;-81
2023/03/22 11:41:20;;;;;;;3.00;2.80;;;;;20.50;95945.00;;;;8379013;28;20261;-81
2023/03/22 11:45:28;;;;;;;8.40;4.53;;;;;20.70;95941.00;;;;8378563;28;20832;-82
2023/03/22 11:49:39;;;;;;;4.05;3.65;;;;;20.70;95937.00;;;;8370542;28;20196;-82
2023/03/22 11:53:45;;;;;;;3.90;3.60;;;;;20.80;95944.00;;;;8370830;28;20208;-82
2023/03/22 11:57:50;;;;;;;4.43;3.75;;;;;20.80;95939.00;;;;8373126;28;20203;-81
2023/03/22 12:02:01;;;;;;;4.00;3.15;;;;;20.70;95933.00;;;;8382579;28;20465;-81
2023/03/22 12:06:16;;;;;;;2.65;2.45;;;;;20.50;95919.00;;;;8377803;28;20220;-81
2023/03/22 12:10:26;;;;;;;3.28;2.97;;;;;20.30;95918.00;;;;8374592;28;20216;-81
2023/03/22 12:14:33;;;;;;;3.30;3.00;;;;;20.30;95908.00;;;;8360791;28;20201;-77
2023/03/22 12:18:47;;;;;;;2.97;2.78;;;;;20.40;95904.00;;;;8370625;28;20196;-79
2023/03/22 12:22:53;;;;;;;4.25;2.63;;;;;20.40;95896.00;;;;8372960;28;20204;-78
2023/03/22 12:27:01;;;;;;;2.67;2.53;;;;;20.40;95895.00;;;;8369058;28;20192;-79
2023/03/22 12:31:13;;;;;;;5.18;2.65;;;;;20.40;95892.00;;;;8367989;28;20225;-79
2023/03/22 12:35:23;;;;;;;3.88;2.75;;;;;20.40;95886.00;;;;8367309;28;20204;-78
2023/03/22 12:39:30;;;;;;;3.25;2.47;;;;;20.50;95881.00;;;;8378128;28;20226;-78
2023/03/22 12:43:49;;;;;;;2.50;2.25;;;;;20.50;95873.00;;;;8372803;28;20201;-79
2023/03/22 12:48:01;;;;;;;2.30;2.10;;;;;20.40;95882.00;;;;8377854;28;20195;-78
2023/03/22 12:52:15;;;;;;;3.28;2.50;;;;;20.20;95877.00;;;;8373440;28;20237;-75
2023/03/22 12:56:24;;;;;;;2.60;2.40;;;;;20.10;95880.00;;;;8373590;28;20283;-79
2023/03/22 13:00:32;;;;;;;2.60;2.40;;;;;20.00;95874.00;;;;8373525;28;20203;-80
2023/03/22 13:04:50;;;;;;;2.53;2.30;;;;;20.10;95867.00;;;;8382526;28;20747;-77
2023/03/22 13:09:14;;;;;;;2.65;2.45;;;;;20.30;95870.00;;;;8368449;28;20306;-72
2023/03/22 13:13:43;;;;;;;2.13;2.03;;;;;20.30;95870.00;;;;8366526;28;20225;-73
2023/03/22 13:17:46;;;;;;;1.90;1.80;;;;;20.20;95858.00;;;;8367712;28;20200;-72
2023/03/22 13:21:49;;;;;;;2.15;1.95;;;;;20.20;95876.00;;;;8365708;28;20193;-73
2023/03/22 13:26:04;;;;;;;2.15;2.05;;;;;20.10;95867.00;;;;8364033;28;20198;-71
2023/03/22 13:30:19;;;;;;;6.07;2.20;;;;;20.10;95870.00;;;;8365069;28;20542;-77
2023/03/22 13:34:33;;;;;;;2.58;1.80;;;;;20.20;95853.00;;;;8365198;28;20538;-78
2023/03/22 13:38:44;;;;;;;2.65;1.80;;;;;20.40;95854.00;;;;8363451;28;20189;-80
2023/03/22 13:42:48;;;;;;;2.72;1.88;;;;;20.50;95843.00;;;;8364727;28;20234;-76
2023/03/22 13:46:52;;;;;;;2.28;1.90;;;;;20.40;95841.00;;;;8365001;28;20288;-77
2023/03/22 13:50:59;;;;;;;3.20;1.98;;;;;20.50;95840.00;;;;8364351;28;20692;-80
2023/03/22 13:55:15;;;;;;;3.20;2.20;;;;;20.50;95836.00;;;;8364953;28;20208;-80
2023/03/22 13:59:25;;;;;;;2.10;1.88;;;;;20.50;95840.00;;;;8364988;28;20197;-80
2023/03/22 14:03:33;;;;;;;2.38;2.20;;;;;20.50;95822.00;;;;8365087;28;20740;-78
2023/03/22 14:07:43;;;;;;;3.03;1.98;;;;;20.60;95829.00;;;;8359612;28;20200;-77
2023/03/22 14:11:56;;;;;;;3.20;2.13;;;;;20.70;95828.00;;;;8364109;28;20212;-79
2023/03/22 14:16:08;;;;;;;3.22;2.13;;;;;20.50;95819.00;;;;8363679;28;20689;-78
2023/03/22 14:20:23;;;;;;;3.08;2.38;;;;;20.50;95811.00;;;;8363176;28;20193;-79
2023/03/22 14:24:28;;;;;;;2.55;2.13;;;;;20.60;95819.00;;;;8362800;28;20197;-78
2023/03/22 14:28:36;;;;;;;1.95;1.85;;;;;20.80;95811.00;;;;8362496;28;20196;-78
2023/03/22 14:32:44;;;;;;;3.63;2.00;;;;;20.80;95809.00;;;;8363777;28;20266;-78
2023/03/22 14:36:49;;;;;;;3.72;1.95;;;;;20.60;95809.00;;;;8363907;28;20174;-79
2023/03/22 14:41:05;;;;;;;3.28;2.22;;;;;20.50;95807.00;;;;8364856;28;20196;-78
2023/03/22 14:45:21;;;;;;;2.00;1.80;;;;;20.60;95810.00;;;;8364630;28;20185;-79
2023/03/22 14:49:26;;;;;;;2.08;1.70;;;;;20.70;95812.00;;;;8367291;28;20193;-79
2023/03/22 14:53:32;;;;;;;1.90;1.80;;;;;20.70;95822.00;;;;8369295;28;20264;-79
2023/03/22 14:57:38;;;;;;;1.77;1.67;;;;;20.80;95816.00;;;;8353042;28;20188;-79
2023/03/22 15:01:45;;;;;;;2.05;1.80;;;;;20.90;95814.00;;;;8369386;28;20323;-79
2023/03/22 15:05:50;;;;;;;1.60;1.50;;;;;21.20;95816.00;;;;8369402;28;20232;-80
2023/03/22 15:09:52;;;;;;;1.80;1.70;;;;;21.50;95813.00;;;;8368410;28;20204;-79
2023/03/22 15:13:56;;;;;;;2.20;1.85;;;;;21.40;95804.00;;;;8369027;28;20224;-80
2023/03/22 15:18:01;;;;;;;3.25;2.00;;;;;21.40;95794.00;;;;8369228;28;20526;-79
2023/03/22 15:22:11;;;;;;;2.65;1.75;;;;;21.50;95783.00;;;;8369112;28;20188;-80
2023/03/22 15:26:19;;;;;;;2.38;1.75;;;;;21.40;95796.00;;;;8367853;28;20603;-82
2023/03/22 15:30:24;;;;;;;3.80;1.83;;;;;21.60;95789.00;;;;8369139;28;20199;-80
2023/03/22 15:34:31;;;;;;;2.00;1.83;;;;;21.60;95784.00;;;;8366111;28;20661;-74
2023/03/22 15:38:39;;;;;;;2.55;2.35;;;;;21.50;95779.00;;;;8368915;28;20614;-82
2023/03/22 15:42:42;;;;;;;3.33;1.80;;;;;21.50;95787.00;;;;8367893;28;20200;-76
2023/03/22 15:46:54;;;;;;;1.60;1.50;;;;;21.30;95783.00;;;;8368948;28;20204;-77
2023/03/22 15:50:56;;;;;;;2.78;1.63;;;;;21.00;95785.00;;;;8367112;28;20504;-79
2023/03/22 15:55:04;;;;;;;2.10;2.00;;;;;20.60;95783.00;;;;8368348;28;20526;-78
2023/03/22 15:59:24;;;;;;;3.45;1.95;;;;;20.40;95782.00;;;;8366428;28;20258;-78
2023/03/22 16:03:41;;;;;;;2.88;1.80;;;;;20.20;95784.00;;;;8365399;28;20224;-78
2023/03/22 16:07:43;;;;;;;2.35;1.60;;;;;20.00;95774.00;;;;8366967;28;20624;-77
2023/03/22 16:11:46;;;;;;;3.33;2.00;;;;;19.90;95776.00;;;;8366593;28;20227;-77
2023/03/22 16:15:49;;;;;;;2.47;1.70;;;;;19.90;95782.00;;;;8365108;28;20200;-77
2023/03/22 16:19:51;;;;;;;2.35;1.83;;;;;19.90;95788.00;;;;8366605;28;20201;-77
2023/03/22 16:23:53;;;;;;;3.70;1.90;;;;;19.90;95788.00;;;;8366926;28;20211;-77
2023/03/22 16:28:01;;;;;;;2.22;1.85;;;;;19.80;95787.00;;;;8364647;28;20188;-77
2023/03/22 16:32:04;;;;;;;1.80;1.70;;;;;19.60;95789.00;;;;8366588;28;20267;-76
2023/03/22 16:36:10;;;;;;;3.72;1.70;;;;;19.50;95786.00;;;;8364231;28;20193;-77
2023/03/22 16:40:20;;;;;;;2.80;1.80;;;;;19.30;95787.00;;;;8364327;28;20189;-77
2023/03/22 16:44:23;;;;;;;2.00;1.80;;;;;19.10;95786.00;;;;8367410;28;20193;-77
2023/03/22 16:48:28;;;;;;;1.83;1.73;;;;;18.80;95788.00;;;;8367104;28;20193;-77
2023/03/22 16:52:30;;;;;;;7.57;1.67;;;;;18.60;95793.00;;;;8365999;28;20220;-76
2023/03/22 16:56:33;;;;;;;3.10;1.70;;;;;18.40;95787.00;;;;8363603;28;20205;-75
2023/03/22 17:00:41;;;;;;;2.33;1.65;;;;;18.10;95795.00;;;;8364893;28;20581;-75
2023/03/22 17:04:43;;;;;;;8.07;1.70;;;;;17.80;95791.00;;;;8366830;28;20221;-76
2023/03/22 17:09:17;;;;;;;3.30;1.73;;;;;17.40;95787.00;;;;8369682;28;20201;-76
2023/03/22 17:13:22;;;;;;;3.20;2.03;;;;;17.00;95793.00;;;;8363678;28;20627;-74
2023/03/22 17:17:27;;;;;;;2.33;1.77;;;;;16.50;95792.00;;;;8365038;28;20188;-75
2023/03/22 17:21:29;;;;;;;2.63;1.80;;;;;16.00;95791.00;;;;8363987;28;20287;-75
2023/03/22 17:25:33;;;;;;;9.10;1.77;;;;;15.60;95790.00;;;;8364565;28;20573;-74
2023/03/22 17:29:37;;;;;;;3.53;1.80;;;;;15.10;95789.00;;;;8363991;28;20208;-74
2023/03/22 17:33:40;;;;;;;8.25;2.55;;;;;14.70;95793.00;;;;8360125;28;20252;-74
2023/03/22 17:37:45;;;;;;;21.05;2.95;;;;;14.20;95784.00;;;;8364435;28;20594;-75
2023/03/22 17:41:47;;;;;;;24.52;3.30;;;;;13.80;95790.00;;;;8364275;28;20611;-74
2023/03/22 17:45:51;;;;;;;14.57;2.63;;;;;13.40;95798.00;;;;8365000;28;20197;-73
2023/03/22 17:49:54;;;;;;;19.60;3.83;;;;;13.20;95796.00;;;;8364265;28;20196;-74
2023/03/22 17:53:56;;;;;;;8.85;3.15;;;;;13.00;95806.00;;;;8364049;28;20216;-74
2023/03/22 17:58:01;;;;;;;8.05;2.92;;;;;12.80;95800.00;;;;8363537;28;20193;-74
2023/03/22 18:02:05;;;;;;;6.97;2.65;;;;;12.60;95801.00;;;;8363562;28;20236;-74
2023/03/22 18:06:09;;;;;;;3.63;2.42;;;;;12.40;95798.00;;;;8363899;28;20192;-75
2023/03/22 18:10:14;;;;;;;7.32;3.80;;;;;12.20;95806.00;;;;8364439;28;20279;-75
2023/03/22 18:14:17;;;;;;;15.63;4.00;;;;;12.10;95806.00;;;;8342726;28;20281;-74
2023/03/22 18:18:19;;;;;;;9.00;3.97;;;;;12.00;95813.00;;;;8360579;28;20207;-75
2023/03/22 18:22:25;;;;;;;12.35;4.35;;;;;11.80;95819.00;;;;8363765;28;20280;-76
2023/03/22 18:26:28;;;;;;;6.15;4.00;;;;;11.70;95823.00;;;;8368707;28;20519;-75
2023/03/22 18:30:30;;;;;;;12.18;5.07;;;;;11.60;95818.00;;;;8366152;28;20201;-75
2023/03/22 18:34:35;;;;;;;7.00;4.40;;;;;11.50;95822.00;;;;8370505;28;20223;-74
2023/03/22 18:38:45;;;;;;;9.40;4.95;;;;;11.50;95821.00;;;;8369576;28;20669;-74
2023/03/22 18:42:47;;;;;;;8.23;5.43;;;;;11.40;95815.00;;;;8369061;28;20189;-74
2023/03/22 18:46:49;;;;;;;10.70;6.68;;;;;11.40;95821.00;;;;8370675;28;20196;-77
2023/03/22 18:50:55;;;;;;;11.60;6.43;;;;;11.20;95813.00;;;;8370106;28;20231;-74
2023/03/22 18:54:59;;;;;;;11.02;5.50;;;;;11.10;95823.00;;;;8370278;28;20237;-74
2023/03/22 18:59:02;;;;;;;7.38;4.85;;;;;11.00;95820.00;;;;8369616;28;20255;-74
2023/03/22 19:03:09;;;;;;;10.48;4.68;;;;;10.90;95819.00;;;;8369073;28;20307;-76
2023/03/22 19:07:12;;;;;;;11.32;4.97;;;;;10.80;95818.00;;;;8369719;28;20196;-75
2023/03/22 19:11:17;;;;;;;7.38;4.63;;;;;10.70;95816.00;;;;8370267;28;20193;-75
2023/03/22 19:15:19;;;;;;;14.18;4.78;;;;;10.50;95820.00;;;;8366401;28;20275;-72
2023/03/22 19:19:21;;;;;;;6.85;4.30;;;;;10.40;95817.00;;;;8369709;28;20201;-72
2023/03/22 19:23:25;;;;;;;9.25;4.20;;;;;10.30;95822.00;;;;8368439;28;20238;-73
2023/03/22 19:27:29;;;;;;;7.35;4.10;;;;;10.10;95823.00;;;;8367067;28;20196;-73
2023/03/22 19:31:31;;;;;;;6.70;4.30;;;;;10.00;95820.00;;;;8368540;28;20194;-73
2023/03/22 19:35:33;;;;;;;5.03;4.45;;;;;10.00;95819.00;;;;8366376;28;20228;-73
2023/03/22 19:39:35;;;;;;;6.18;4.40;;;;;9.80;95810.00;;;;8368806;28;20199;-72
2023/03/22 19:43:39;;;;;;;12.50;5.43;;;;;9.70;95812.00;;;;8364054;28;20634;-73
2023/03/22 19:47:43;;;;;;;10.63;5.43;;;;;9.50;95801.00;;;;8368817;28;20600;-72
2023/03/22 19:51:45;;;;;;;10.48;5.30;;;;;9.50;95815.00;;;;8352545;28;20201;-72
2023/03/22 19:55:50;;;;;;;11.00;5.40;;;;;9.50;95810.00;;;;8368406;28;20782;-73
2023/03/22 19:59:55;;;;;;;11.30;5.73;;;;;9.50;95810.00;;;;8368710;28;20188;-72
2023/03/22 20:03:57;;;;;;;9.87;5.23;;;;;9.40;95808.00;;;;8367369;28;20665;-72
2023/03/22 20:07:59;;;;;;;12.93;5.75;;;;;9.20;95808.00;;;;8366361;28;20196;-72
2023/03/22 20:12:07;;;;;;;11.63;5.65;;;;;9.10;95814.00;;;;8366712;28;20243;-72
2023/03/22 20:16:11;;;;;;;12.30;6.30;;;;;9.10;95816.00;;;;8366085;28;20584;-72
2023/03/22 20:20:17;;;;;;;9.80;6.03;;;;;9.10;95809.00;;;;8368343;28;20283;-72
2023/03/22 20:24:21;;;;;;;8.55;5.47;;;;;8.90;95814.00;;;;8366325;28;20232;-72
2023/03/22 20:28:23;;;;;;;12.63;6.63;;;;;8.80;95809.00;;;;8367372;28;20205;-72
2023/03/22 20:32:27;;;;;;;9.52;6.45;;;;;8.70;95799.00;;;;8367895;28;20224;-72
2023/03/22 20:36:31;;;;;;;15.47;6.43;;;;;8.60;95809.00;;;;8363843;28;20197;-72